sensor_id;sensor_type;location;lat;lon;timestamp;temperature;humidity
7684;DHT22;3884;48.616;12.872;2023-03-01T00:01:34;0.70;1.00
7684;DHT22;3884;48.616;12.872;2023-03-01T00:04:01;0.60;1.00
7684;DHT22;3884;48.616;12.872;2023-03-01T00:06:30;0.60;1.00
7684;DHT22;3884;48.616;12.872;2023-03-01T00:08:57;0.50;1.00
7684;DHT22;3884;48.616;12.872;2023-03-01T00:11:26;0.50;1.00
7684;DHT22;3884;48.616;12.872;2023-03-01T00:13:56;0.50;1.00
7684;DHT22;3884;48.616;12.872;2023-03-01T00:16:27;0.30;1.00
7684;DHT22;3884;48.616;12.872;2023-03-01T00:18:54;0.30;1.00
7684;DHT22;3884;48.616;12.872;2023-03-01T00:21:22;0.30;1.00
7684;DHT22;3884;48.616;12.872;2023-03-01T00:23:50;0.20;1.00
7684;DHT22;3884;48.616;12.872;2023-03-01T00:26:19;0.10;1.00
7684;DHT22;3884;48.616;12.872;2023-03-01T00:28:47;0.10;1.00
7684;DHT22;3884;48.616;12.872;2023-03-01T00:31:16;0.00;1.00
7684;DHT22;3884;48.616;12.872;2023-03-01T00:33:44;0.00;1.00
7684;DHT22;3884;48.616;12.872;2023-03-01T00:36:13;0.00;1.00
7684;DHT22;3884;48.616;12.872;2023-03-01T00:38:42;0.00;1.00
7684;DHT22;3884;48.616;12.872;2023-03-01T00:41:12;0.00;1.00
7684;DHT22;3884;48.616;12.872;2023-03-01T00:43:39;-0.10;1.00
7684;DHT22;3884;48.616;12.872;2023-03-01T00:46:09;-0.10;1.00
7684;DHT22;3884;48.616;12.872;2023-03-01T00:48:37;-0.20;5.60
7684;DHT22;3884;48.616;12.872;2023-03-01T00:51:05;-0.20;47.40
7684;DHT22;3884;48.616;12.872;2023-03-01T00:53:33;-0.20;90.80
7684;DHT22;3884;48.616;12.872;2023-03-01T00:56:00;-0.20;92.30
7684;DHT22;3884;48.616;12.872;2023-03-01T00:58:29;-0.20;99.90
7684;DHT22;3884;48.616;12.872;2023-03-01T01:00:57;-0.10;99.90
7684;DHT22;3884;48.616;12.872;2023-03-01T01:03:24;-0.40;99.90
7684;DHT22;3884;48.616;12.872;2023-03-01T01:05:51;-0.30;99.90
7684;DHT22;3884;48.616;12.872;2023-03-01T01:08:19;-0.30;99.90
7684;DHT22;3884;48.616;12.872;2023-03-01T01:10:46;-0.30;99.90
7684;DHT22;3884;48.616;12.872;2023-03-01T01:13:14;-0.30;99.90
7684;DHT22;3884;48.616;12.872;2023-03-01T01:15:42;-0.40;99.90
7684;DHT22;3884;48.616;12.872;2023-03-01T01:18:10;-0.50;1.00
7684;DHT22;3884;48.616;12.872;2023-03-01T01:20:37;-0.60;1.00
7684;DHT22;3884;48.616;12.872;2023-03-01T01:23:05;-0.60;1.70
7684;DHT22;3884;48.616;12.872;2023-03-01T01:25:35;-0.60;35.40
7684;DHT22;3884;48.616;12.872;2023-03-01T01:28:03;-0.70;1.00
7684;DHT22;3884;48.616;12.872;2023-03-01T01:30:30;-0.60;1.00
7684;DHT22;3884;48.616;12.872;2023-03-01T01:32:58;-0.60;1.00
7684;DHT22;3884;48.616;12.872;2023-03-01T01:35:25;-0.70;1.00
7684;DHT22;3884;48.616;12.872;2023-03-01T01:37:52;-0.60;1.00
7684;DHT22;3884;48.616;12.872;2023-03-01T01:40:19;-0.60;1.00
7684;DHT22;3884;48.616;12.872;2023-03-01T01:42:46;-0.70;1.00
7684;DHT22;3884;48.616;12.872;2023-03-01T01:45:31;-0.70;1.00
7684;DHT22;3884;48.616;12.872;2023-03-01T01:48:03;-0.70;1.00
7684;DHT22;3884;48.616;12.872;2023-03-01T01:50:33;-0.70;1.00
7684;DHT22;3884;48.616;12.872;2023-03-01T01:53:07;-0.70;1.00
7684;DHT22;3884;48.616;12.872;2023-03-01T01:55:37;-0.80;1.00
7684;DHT22;3884;48.616;12.872;2023-03-01T01:58:08;-0.80;1.00
7684;DHT22;3884;48.616;12.872;2023-03-01T02:00:38;-0.80;1.00
7684;DHT22;3884;48.616;12.872;2023-03-01T02:03:10;-0.80;99.90
7684;DHT22;3884;48.616;12.872;2023-03-01T02:05:42;-0.80;1.00
7684;DHT22;3884;48.616;12.872;2023-03-01T02:08:13;-0.80;1.00
7684;DHT22;3884;48.616;12.872;2023-03-01T02:10:40;-0.80;1.00
7684;DHT22;3884;48.616;12.872;2023-03-01T02:13:10;-0.90;1.00
7684;DHT22;3884;48.616;12.872;2023-03-01T02:15:39;-0.80;99.90
7684;DHT22;3884;48.616;12.872;2023-03-01T02:18:10;-0.80;99.90
7684;DHT22;3884;48.616;12.872;2023-03-01T02:20:44;-0.70;99.90
7684;DHT22;3884;48.616;12.872;2023-03-01T02:23:14;-0.70;99.90
7684;DHT22;3884;48.616;12.872;2023-03-01T02:25:48;-0.70;99.90
7684;DHT22;3884;48.616;12.872;2023-03-01T02:28:29;-0.70;99.90
7684;DHT22;3884;48.616;12.872;2023-03-01T02:30:56;-0.60;99.90
7684;DHT22;3884;48.616;12.872;2023-03-01T02:33:41;-0.60;99.90
7684;DHT22;3884;48.616;12.872;2023-03-01T02:36:14;-0.60;99.90
7684;DHT22;3884;48.616;12.872;2023-03-01T02:38:42;-0.70;99.90
7684;DHT22;3884;48.616;12.872;2023-03-01T02:41:11;-0.70;99.90
7684;DHT22;3884;48.616;12.872;2023-03-01T02:43:41;-0.70;99.90
7684;DHT22;3884;48.616;12.872;2023-03-01T02:46:14;-0.70;99.90
7684;DHT22;3884;48.616;12.872;2023-03-01T02:48:44;-0.60;99.90
7684;DHT22;3884;48.616;12.872;2023-03-01T02:51:42;-0.60;99.90
7684;DHT22;3884;48.616;12.872;2023-03-01T02:54:18;-0.50;99.90
7684;DHT22;3884;48.616;12.872;2023-03-01T02:56:47;-0.60;99.90
7684;DHT22;3884;48.616;12.872;2023-03-01T02:59:21;-0.60;99.90
7684;DHT22;3884;48.616;12.872;2023-03-01T03:01:49;-0.70;99.90
7684;DHT22;3884;48.616;12.872;2023-03-01T03:04:18;-0.60;99.90
7684;DHT22;3884;48.616;12.872;2023-03-01T03:06:50;-0.70;99.90
7684;DHT22;3884;48.616;12.872;2023-03-01T03:09:18;-0.70;99.90
7684;DHT22;3884;48.616;12.872;2023-03-01T03:11:46;-0.70;99.90
7684;DHT22;3884;48.616;12.872;2023-03-01T03:14:15;-0.70;99.90
7684;DHT22;3884;48.616;12.872;2023-03-01T03:16:48;-0.70;99.90
7684;DHT22;3884;48.616;12.872;2023-03-01T03:19:17;-0.70;99.90
7684;DHT22;3884;48.616;12.872;2023-03-01T03:21:45;-0.70;99.90
7684;DHT22;3884;48.616;12.872;2023-03-01T03:24:12;-0.70;99.90
7684;DHT22;3884;48.616;12.872;2023-03-01T03:26:39;-0.70;99.90
7684;DHT22;3884;48.616;12.872;2023-03-01T03:29:06;-0.70;99.90
7684;DHT22;3884;48.616;12.872;2023-03-01T03:31:33;-0.70;99.90
7684;DHT22;3884;48.616;12.872;2023-03-01T03:34:02;-0.70;99.90
7684;DHT22;3884;48.616;12.872;2023-03-01T03:36:29;-0.70;99.90
7684;DHT22;3884;48.616;12.872;2023-03-01T03:38:56;-0.70;99.90
7684;DHT22;3884;48.616;12.872;2023-03-01T03:41:23;-0.80;99.90
7684;DHT22;3884;48.616;12.872;2023-03-01T03:43:50;-0.80;99.90
7684;DHT22;3884;48.616;12.872;2023-03-01T03:46:17;-0.80;99.90
7684;DHT22;3884;48.616;12.872;2023-03-01T03:48:45;-0.80;99.90
7684;DHT22;3884;48.616;12.872;2023-03-01T03:51:15;-0.80;99.90
7684;DHT22;3884;48.616;12.872;2023-03-01T03:53:42;-0.80;99.90
7684;DHT22;3884;48.616;12.872;2023-03-01T03:56:09;-0.90;99.90
7684;DHT22;3884;48.616;12.872;2023-03-01T03:58:37;-0.90;99.90
7684;DHT22;3884;48.616;12.872;2023-03-01T04:01:04;-0.90;99.90
7684;DHT22;3884;48.616;12.872;2023-03-01T04:03:32;-0.90;99.90
7684;DHT22;3884;48.616;12.872;2023-03-01T04:06:02;-0.90;99.90
7684;DHT22;3884;48.616;12.872;2023-03-01T04:08:31;-1.00;99.90
7684;DHT22;3884;48.616;12.872;2023-03-01T04:11:00;-1.00;99.90
7684;DHT22;3884;48.616;12.872;2023-03-01T04:13:47;-0.90;99.90
7684;DHT22;3884;48.616;12.872;2023-03-01T04:16:14;-1.00;99.90
7684;DHT22;3884;48.616;12.872;2023-03-01T04:18:42;-1.00;99.90
7684;DHT22;3884;48.616;12.872;2023-03-01T04:21:09;-1.00;99.90
7684;DHT22;3884;48.616;12.872;2023-03-01T04:23:38;-1.10;99.90
7684;DHT22;3884;48.616;12.872;2023-03-01T04:26:06;-1.00;99.90
7684;DHT22;3884;48.616;12.872;2023-03-01T04:28:35;-0.90;99.90
7684;DHT22;3884;48.616;12.872;2023-03-01T04:31:05;-0.90;99.90
7684;DHT22;3884;48.616;12.872;2023-03-01T04:33:38;-0.90;99.90
7684;DHT22;3884;48.616;12.872;2023-03-01T04:36:06;-0.90;99.90
7684;DHT22;3884;48.616;12.872;2023-03-01T04:38:34;-0.90;99.90
7684;DHT22;3884;48.616;12.872;2023-03-01T04:41:04;-0.90;99.90
7684;DHT22;3884;48.616;12.872;2023-03-01T04:43:31;-0.90;99.90
7684;DHT22;3884;48.616;12.872;2023-03-01T04:46:04;-0.90;99.20
7684;DHT22;3884;48.616;12.872;2023-03-01T04:48:32;-0.90;99.90
7684;DHT22;3884;48.616;12.872;2023-03-01T04:50:59;-0.90;77.90
7684;DHT22;3884;48.616;12.872;2023-03-01T04:53:27;-0.80;78.30
7684;DHT22;3884;48.616;12.872;2023-03-01T04:55:55;-0.90;79.60
7684;DHT22;3884;48.616;12.872;2023-03-01T04:58:24;-0.90;86.30
7684;DHT22;3884;48.616;12.872;2023-03-01T05:00:52;-0.90;80.10
7684;DHT22;3884;48.616;12.872;2023-03-01T05:03:20;-0.90;82.60
7684;DHT22;3884;48.616;12.872;2023-03-01T05:05:50;-1.00;95.10
7684;DHT22;3884;48.616;12.872;2023-03-01T05:08:17;-1.00;95.70
7684;DHT22;3884;48.616;12.872;2023-03-01T05:10:46;-1.00;95.80
7684;DHT22;3884;48.616;12.872;2023-03-01T05:13:14;-1.00;92.70
7684;DHT22;3884;48.616;12.872;2023-03-01T05:15:48;-1.00;92.40
7684;DHT22;3884;48.616;12.872;2023-03-01T05:18:20;-1.10;96.10
7684;DHT22;3884;48.616;12.872;2023-03-01T05:20:51;-1.20;99.90
7684;DHT22;3884;48.616;12.872;2023-03-01T05:23:18;-1.10;95.50
7684;DHT22;3884;48.616;12.872;2023-03-01T05:25:45;-1.10;89.80
7684;DHT22;3884;48.616;12.872;2023-03-01T05:28:13;-1.10;90.80
7684;DHT22;3884;48.616;12.872;2023-03-01T05:30:40;-1.10;92.10
7684;DHT22;3884;48.616;12.872;2023-03-01T05:33:09;-1.10;83.10
7684;DHT22;3884;48.616;12.872;2023-03-01T05:35:39;-1.10;88.90
7684;DHT22;3884;48.616;12.872;2023-03-01T05:38:08;-1.10;69.00
7684;DHT22;3884;48.616;12.872;2023-03-01T05:40:35;-1.10;80.20
7684;DHT22;3884;48.616;12.872;2023-03-01T05:43:02;-1.00;72.80
7684;DHT22;3884;48.616;12.872;2023-03-01T05:45:31;-1.10;64.10
7684;DHT22;3884;48.616;12.872;2023-03-01T05:47:59;-1.00;68.70
7684;DHT22;3884;48.616;12.872;2023-03-01T05:50:29;-1.00;58.40
7684;DHT22;3884;48.616;12.872;2023-03-01T05:52:59;-1.00;62.90
7684;DHT22;3884;48.616;12.872;2023-03-01T05:55:27;-1.00;57.80
7684;DHT22;3884;48.616;12.872;2023-03-01T05:57:54;-1.00;61.00
7684;DHT22;3884;48.616;12.872;2023-03-01T06:00:22;-1.00;47.50
7684;DHT22;3884;48.616;12.872;2023-03-01T06:02:49;-1.00;57.80
7684;DHT22;3884;48.616;12.872;2023-03-01T06:05:18;-1.00;47.70
7684;DHT22;3884;48.616;12.872;2023-03-01T06:07:46;-1.00;42.10
7684;DHT22;3884;48.616;12.872;2023-03-01T06:10:14;-1.00;50.70
7684;DHT22;3884;48.616;12.872;2023-03-01T06:12:42;-1.00;24.30
7684;DHT22;3884;48.616;12.872;2023-03-01T06:15:10;-1.00;36.50
7684;DHT22;3884;48.616;12.872;2023-03-01T06:17:39;-1.00;28.40
7684;DHT22;3884;48.616;12.872;2023-03-01T06:20:08;-1.00;32.20
7684;DHT22;3884;48.616;12.872;2023-03-01T06:22:36;-1.10;44.60
7684;DHT22;3884;48.616;12.872;2023-03-01T06:25:06;-1.10;38.30
7684;DHT22;3884;48.616;12.872;2023-03-01T06:27:33;-1.10;39.50
7684;DHT22;3884;48.616;12.872;2023-03-01T06:30:01;-1.00;39.60
7684;DHT22;3884;48.616;12.872;2023-03-01T06:32:28;-1.00;42.10
7684;DHT22;3884;48.616;12.872;2023-03-01T06:34:55;-1.00;36.90
7684;DHT22;3884;48.616;12.872;2023-03-01T06:37:24;-0.90;39.50
7684;DHT22;3884;48.616;12.872;2023-03-01T06:39:51;-0.90;26.70
7684;DHT22;3884;48.616;12.872;2023-03-01T06:42:19;-0.80;13.70
7684;DHT22;3884;48.616;12.872;2023-03-01T06:44:46;-0.70;3.70
7684;DHT22;3884;48.616;12.872;2023-03-01T06:47:13;-0.70;2.60
7684;DHT22;3884;48.616;12.872;2023-03-01T06:49:41;-0.70;11.70
7684;DHT22;3884;48.616;12.872;2023-03-01T06:52:08;-0.70;9.80
7684;DHT22;3884;48.616;12.872;2023-03-01T06:54:35;-0.60;1.00
7684;DHT22;3884;48.616;12.872;2023-03-01T06:57:02;-0.60;6.70
7684;DHT22;3884;48.616;12.872;2023-03-01T06:59:31;-0.60;1.00
7684;DHT22;3884;48.616;12.872;2023-03-01T07:01:58;-0.60;1.00
7684;DHT22;3884;48.616;12.872;2023-03-01T07:04:25;-0.50;1.00
7684;DHT22;3884;48.616;12.872;2023-03-01T07:06:54;-0.40;1.00
7684;DHT22;3884;48.616;12.872;2023-03-01T07:09:21;-0.40;1.00
7684;DHT22;3884;48.616;12.872;2023-03-01T07:11:48;-0.30;1.00
7684;DHT22;3884;48.616;12.872;2023-03-01T07:14:18;-0.30;1.00
7684;DHT22;3884;48.616;12.872;2023-03-01T07:16:47;-0.20;1.00
7684;DHT22;3884;48.616;12.872;2023-03-01T07:19:14;-0.10;1.00
7684;DHT22;3884;48.616;12.872;2023-03-01T07:21:41;0.00;1.00
7684;DHT22;3884;48.616;12.872;2023-03-01T07:24:08;0.10;1.00
7684;DHT22;3884;48.616;12.872;2023-03-01T07:26:36;0.20;1.00
7684;DHT22;3884;48.616;12.872;2023-03-01T07:29:04;0.30;1.00
7684;DHT22;3884;48.616;12.872;2023-03-01T07:31:32;0.30;1.00
7684;DHT22;3884;48.616;12.872;2023-03-01T07:34:00;0.40;1.00
7684;DHT22;3884;48.616;12.872;2023-03-01T07:36:27;0.50;1.00
7684;DHT22;3884;48.616;12.872;2023-03-01T07:38:55;0.60;1.00
7684;DHT22;3884;48.616;12.872;2023-03-01T07:41:23;0.70;1.00
7684;DHT22;3884;48.616;12.872;2023-03-01T07:43:50;0.70;1.00
7684;DHT22;3884;48.616;12.872;2023-03-01T07:46:17;0.80;1.00
7684;DHT22;3884;48.616;12.872;2023-03-01T07:48:44;0.90;1.00
7684;DHT22;3884;48.616;12.872;2023-03-01T07:51:13;1.00;1.00
7684;DHT22;3884;48.616;12.872;2023-03-01T07:53:40;1.10;1.00
7684;DHT22;3884;48.616;12.872;2023-03-01T07:56:08;1.10;1.00
7684;DHT22;3884;48.616;12.872;2023-03-01T07:58:37;1.20;1.00
7684;DHT22;3884;48.616;12.872;2023-03-01T08:01:05;1.30;1.00
7684;DHT22;3884;48.616;12.872;2023-03-01T08:03:33;1.30;1.00
7684;DHT22;3884;48.616;12.872;2023-03-01T08:06:00;1.40;1.00
7684;DHT22;3884;48.616;12.872;2023-03-01T08:08:29;1.40;1.00
7684;DHT22;3884;48.616;12.872;2023-03-01T08:10:56;1.50;1.00
7684;DHT22;3884;48.616;12.872;2023-03-01T08:13:23;1.50;1.00
7684;DHT22;3884;48.616;12.872;2023-03-01T08:15:51;1.60;1.00
7684;DHT22;3884;48.616;12.872;2023-03-01T08:18:19;1.60;1.00
7684;DHT22;3884;48.616;12.872;2023-03-01T08:20:47;1.80;1.00
7684;DHT22;3884;48.616;12.872;2023-03-01T08:23:14;1.80;1.00
7684;DHT22;3884;48.616;12.872;2023-03-01T08:25:42;1.80;1.00
7684;DHT22;3884;48.616;12.872;2023-03-01T08:28:09;1.90;1.00
7684;DHT22;3884;48.616;12.872;2023-03-01T08:30:36;2.00;1.00
7684;DHT22;3884;48.616;12.872;2023-03-01T08:33:03;2.00;1.00
7684;DHT22;3884;48.616;12.872;2023-03-01T08:35:30;2.20;1.00
7684;DHT22;3884;48.616;12.872;2023-03-01T08:37:57;2.30;1.00
7684;DHT22;3884;48.616;12.872;2023-03-01T08:40:24;2.50;1.00
7684;DHT22;3884;48.616;12.872;2023-03-01T08:42:53;2.50;1.00
7684;DHT22;3884;48.616;12.872;2023-03-01T08:45:20;2.50;1.00
7684;DHT22;3884;48.616;12.872;2023-03-01T08:47:47;2.60;1.00
7684;DHT22;3884;48.616;12.872;2023-03-01T08:50:14;2.70;1.00
7684;DHT22;3884;48.616;12.872;2023-03-01T08:52:41;2.70;1.00
7684;DHT22;3884;48.616;12.872;2023-03-01T08:55:08;2.70;1.00
7684;DHT22;3884;48.616;12.872;2023-03-01T08:57:35;2.90;1.00
7684;DHT22;3884;48.616;12.872;2023-03-01T09:00:05;2.90;1.00
7684;DHT22;3884;48.616;12.872;2023-03-01T09:02:34;2.90;1.00
7684;DHT22;3884;48.616;12.872;2023-03-01T09:05:01;3.00;1.00
7684;DHT22;3884;48.616;12.872;2023-03-01T09:07:28;3.20;1.00
7684;DHT22;3884;48.616;12.872;2023-03-01T09:09:55;3.30;1.00
7684;DHT22;3884;48.616;12.872;2023-03-01T09:12:23;3.30;1.00
7684;DHT22;3884;48.616;12.872;2023-03-01T09:14:50;3.50;1.00
7684;DHT22;3884;48.616;12.872;2023-03-01T09:17:19;3.50;1.00
7684;DHT22;3884;48.616;12.872;2023-03-01T09:19:47;3.60;1.00
7684;DHT22;3884;48.616;12.872;2023-03-01T09:22:15;3.80;1.00
7684;DHT22;3884;48.616;12.872;2023-03-01T09:24:42;3.90;1.00
7684;DHT22;3884;48.616;12.872;2023-03-01T09:27:09;3.90;1.00
7684;DHT22;3884;48.616;12.872;2023-03-01T09:29:37;3.80;1.00
7684;DHT22;3884;48.616;12.872;2023-03-01T09:32:04;3.80;1.00
7684;DHT22;3884;48.616;12.872;2023-03-01T09:34:32;4.00;1.00
7684;DHT22;3884;48.616;12.872;2023-03-01T09:37:19;4.10;1.00
7684;DHT22;3884;48.616;12.872;2023-03-01T09:39:46;4.00;1.00
7684;DHT22;3884;48.616;12.872;2023-03-01T09:42:13;4.20;1.00
7684;DHT22;3884;48.616;12.872;2023-03-01T09:44:45;4.30;1.00
7684;DHT22;3884;48.616;12.872;2023-03-01T09:47:17;4.40;1.00
7684;DHT22;3884;48.616;12.872;2023-03-01T09:49:53;4.50;1.00
7684;DHT22;3884;48.616;12.872;2023-03-01T09:52:33;4.30;1.00
7684;DHT22;3884;48.616;12.872;2023-03-01T09:55:00;4.40;1.00
7684;DHT22;3884;48.616;12.872;2023-03-01T09:57:33;4.50;1.00
7684;DHT22;3884;48.616;12.872;2023-03-01T10:00:18;4.50;1.00
7684;DHT22;3884;48.616;12.872;2023-03-01T10:02:49;4.40;1.00
7684;DHT22;3884;48.616;12.872;2023-03-01T10:05:39;4.40;1.00
7684;DHT22;3884;48.616;12.872;2023-03-01T10:08:34;4.60;1.00
7684;DHT22;3884;48.616;12.872;2023-03-01T10:11:04;4.70;1.00
7684;DHT22;3884;48.616;12.872;2023-03-01T10:13:37;4.60;1.00
7684;DHT22;3884;48.616;12.872;2023-03-01T10:16:13;4.60;1.00
7684;DHT22;3884;48.616;12.872;2023-03-01T10:18:46;4.70;1.00
7684;DHT22;3884;48.616;12.872;2023-03-01T10:21:18;4.70;1.00
7684;DHT22;3884;48.616;12.872;2023-03-01T10:23:50;4.90;1.00
7684;DHT22;3884;48.616;12.872;2023-03-01T10:26:31;4.90;1.00
7684;DHT22;3884;48.616;12.872;2023-03-01T10:29:03;5.20;1.00
7684;DHT22;3884;48.616;12.872;2023-03-01T10:31:38;5.20;1.00
7684;DHT22;3884;48.616;12.872;2023-03-01T10:34:14;5.40;1.00
7684;DHT22;3884;48.616;12.872;2023-03-01T10:36:44;5.40;1.00
7684;DHT22;3884;48.616;12.872;2023-03-01T10:39:16;5.40;1.00
7684;DHT22;3884;48.616;12.872;2023-03-01T10:42:05;5.30;1.00
7684;DHT22;3884;48.616;12.872;2023-03-01T10:44:47;5.20;1.00
7684;DHT22;3884;48.616;12.872;2023-03-01T10:47:20;5.10;1.00
7684;DHT22;3884;48.616;12.872;2023-03-01T10:49:59;5.20;1.00
7684;DHT22;3884;48.616;12.872;2023-03-01T10:52:32;5.20;1.00
7684;DHT22;3884;48.616;12.872;2023-03-01T10:55:02;5.30;1.00
7684;DHT22;3884;48.616;12.872;2023-03-01T10:57:35;5.40;1.00
7684;DHT22;3884;48.616;12.872;2023-03-01T11:00:22;5.40;1.00
7684;DHT22;3884;48.616;12.872;2023-03-01T11:03:01;5.50;1.00
7684;DHT22;3884;48.616;12.872;2023-03-01T11:05:29;5.70;1.00
7684;DHT22;3884;48.616;12.872;2023-03-01T11:08:01;5.60;1.00
7684;DHT22;3884;48.616;12.872;2023-03-01T11:10:30;5.70;1.00
7684;DHT22;3884;48.616;12.872;2023-03-01T11:13:08;5.70;1.00
7684;DHT22;3884;48.616;12.872;2023-03-01T11:15:41;5.90;1.00
7684;DHT22;3884;48.616;12.872;2023-03-01T11:18:19;5.90;1.00
7684;DHT22;3884;48.616;12.872;2023-03-01T11:20:48;6.10;1.00
7684;DHT22;3884;48.616;12.872;2023-03-01T11:23:17;6.00;1.00
7684;DHT22;3884;48.616;12.872;2023-03-01T11:25:51;6.00;1.00
7684;DHT22;3884;48.616;12.872;2023-03-01T11:28:21;6.30;1.00
7684;DHT22;3884;48.616;12.872;2023-03-01T11:30:51;6.10;1.00
7684;DHT22;3884;48.616;12.872;2023-03-01T11:33:34;6.30;1.00
7684;DHT22;3884;48.616;12.872;2023-03-01T11:36:10;6.10;1.00
7684;DHT22;3884;48.616;12.872;2023-03-01T11:38:44;6.20;1.00
7684;DHT22;3884;48.616;12.872;2023-03-01T11:41:15;6.20;1.00
7684;DHT22;3884;48.616;12.872;2023-03-01T11:43:49;6.30;1.00
7684;DHT22;3884;48.616;12.872;2023-03-01T11:49:54;6.50;1.00
7684;DHT22;3884;48.616;12.872;2023-03-01T11:52:34;6.50;1.00
7684;DHT22;3884;48.616;12.872;2023-03-01T11:55:26;6.70;1.00
7684;DHT22;3884;48.616;12.872;2023-03-01T11:58:12;6.80;1.00
7684;DHT22;3884;48.616;12.872;2023-03-01T12:00:56;6.80;1.00
7684;DHT22;3884;48.616;12.872;2023-03-01T12:03:33;6.90;1.00
7684;DHT22;3884;48.616;12.872;2023-03-01T12:09:31;6.80;1.00
7684;DHT22;3884;48.616;12.872;2023-03-01T12:12:25;6.80;1.00
7684;DHT22;3884;48.616;12.872;2023-03-01T12:15:11;6.80;1.00
7684;DHT22;3884;48.616;12.872;2023-03-01T12:18:01;7.00;1.00
7684;DHT22;3884;48.616;12.872;2023-03-01T12:20:36;7.10;1.00
7684;DHT22;3884;48.616;12.872;2023-03-01T12:26:14;7.20;1.00
7684;DHT22;3884;48.616;12.872;2023-03-01T12:28:56;7.30;1.00
7684;DHT22;3884;48.616;12.872;2023-03-01T12:31:41;7.30;1.00
7684;DHT22;3884;48.616;12.872;2023-03-01T12:34:25;7.40;1.00
7684;DHT22;3884;48.616;12.872;2023-03-01T12:37:18;7.30;1.00
7684;DHT22;3884;48.616;12.872;2023-03-01T12:39:58;7.50;1.00
7684;DHT22;3884;48.616;12.872;2023-03-01T12:42:37;7.70;1.00
7684;DHT22;3884;48.616;12.872;2023-03-01T12:45:26;7.70;1.00
7684;DHT22;3884;48.616;12.872;2023-03-01T12:48:07;7.80;1.00
7684;DHT22;3884;48.616;12.872;2023-03-01T12:50:40;7.80;1.00
7684;DHT22;3884;48.616;12.872;2023-03-01T12:53:20;7.80;1.00
7684;DHT22;3884;48.616;12.872;2023-03-01T12:55:49;7.70;1.00
7684;DHT22;3884;48.616;12.872;2023-03-01T12:58:24;7.90;1.00
7684;DHT22;3884;48.616;12.872;2023-03-01T13:01:07;8.10;1.00
7684;DHT22;3884;48.616;12.872;2023-03-01T13:03:55;8.10;1.00
7684;DHT22;3884;48.616;12.872;2023-03-01T13:06:32;8.10;1.00
7684;DHT22;3884;48.616;12.872;2023-03-01T13:09:08;8.10;1.00
7684;DHT22;3884;48.616;12.872;2023-03-01T13:11:41;8.10;1.00
7684;DHT22;3884;48.616;12.872;2023-03-01T13:14:37;8.10;1.00
7684;DHT22;3884;48.616;12.872;2023-03-01T13:17:31;8.20;1.00
7684;DHT22;3884;48.616;12.872;2023-03-01T13:19:58;8.30;1.00
7684;DHT22;3884;48.616;12.872;2023-03-01T13:22:29;8.30;1.00
7684;DHT22;3884;48.616;12.872;2023-03-01T13:25:13;8.30;1.00
7684;DHT22;3884;48.616;12.872;2023-03-01T13:27:41;8.40;1.00
7684;DHT22;3884;48.616;12.872;2023-03-01T13:30:41;8.50;1.00
7684;DHT22;3884;48.616;12.872;2023-03-01T13:33:38;8.50;1.00
7684;DHT22;3884;48.616;12.872;2023-03-01T13:36:07;8.50;1.00
7684;DHT22;3884;48.616;12.872;2023-03-01T13:38:38;8.50;1.00
7684;DHT22;3884;48.616;12.872;2023-03-01T13:41:07;8.60;1.00
7684;DHT22;3884;48.616;12.872;2023-03-01T13:43:36;8.60;1.00
7684;DHT22;3884;48.616;12.872;2023-03-01T13:46:14;8.60;1.00
7684;DHT22;3884;48.616;12.872;2023-03-01T13:48:45;8.60;1.00
7684;DHT22;3884;48.616;12.872;2023-03-01T13:51:14;8.70;1.00
7684;DHT22;3884;48.616;12.872;2023-03-01T13:53:45;8.70;1.00
7684;DHT22;3884;48.616;12.872;2023-03-01T13:56:15;8.80;1.00
7684;DHT22;3884;48.616;12.872;2023-03-01T13:58:48;8.80;1.00
7684;DHT22;3884;48.616;12.872;2023-03-01T14:01:25;8.80;1.00
7684;DHT22;3884;48.616;12.872;2023-03-01T14:03:54;8.80;1.00
7684;DHT22;3884;48.616;12.872;2023-03-01T14:06:24;8.90;1.00
7684;DHT22;3884;48.616;12.872;2023-03-01T14:09:02;8.90;1.00
7684;DHT22;3884;48.616;12.872;2023-03-01T14:11:53;9.00;1.00
7684;DHT22;3884;48.616;12.872;2023-03-01T14:14:44;9.00;1.00
7684;DHT22;3884;48.616;12.872;2023-03-01T14:20:21;9.00;1.00
7684;DHT22;3884;48.616;12.872;2023-03-01T14:22:52;9.10;1.00
7684;DHT22;3884;48.616;12.872;2023-03-01T14:25:26;9.20;1.00
7684;DHT22;3884;48.616;12.872;2023-03-01T14:27:56;9.30;1.00
7684;DHT22;3884;48.616;12.872;2023-03-01T14:30:26;9.50;1.00
7684;DHT22;3884;48.616;12.872;2023-03-01T14:32:55;9.40;1.00
7684;DHT22;3884;48.616;12.872;2023-03-01T14:35:25;9.50;1.00
7684;DHT22;3884;48.616;12.872;2023-03-01T14:37:53;9.60;1.00
7684;DHT22;3884;48.616;12.872;2023-03-01T14:40:23;9.70;1.00
7684;DHT22;3884;48.616;12.872;2023-03-01T14:42:51;9.70;1.00
7684;DHT22;3884;48.616;12.872;2023-03-01T14:45:19;9.70;1.00
7684;DHT22;3884;48.616;12.872;2023-03-01T14:47:47;9.70;1.00
7684;DHT22;3884;48.616;12.872;2023-03-01T14:50:23;9.60;1.00
7684;DHT22;3884;48.616;12.872;2023-03-01T14:52:53;9.50;1.00
7684;DHT22;3884;48.616;12.872;2023-03-01T14:55:25;9.50;1.00
7684;DHT22;3884;48.616;12.872;2023-03-01T14:57:57;9.60;1.00
7684;DHT22;3884;48.616;12.872;2023-03-01T15:00:26;9.50;1.00
7684;DHT22;3884;48.616;12.872;2023-03-01T15:02:55;9.40;1.00
7684;DHT22;3884;48.616;12.872;2023-03-01T15:05:27;9.40;1.00
7684;DHT22;3884;48.616;12.872;2023-03-01T15:07:58;9.40;1.00
7684;DHT22;3884;48.616;12.872;2023-03-01T15:10:27;9.50;1.00
7684;DHT22;3884;48.616;12.872;2023-03-01T15:12:55;9.60;1.00
7684;DHT22;3884;48.616;12.872;2023-03-01T15:15:32;9.80;1.00
7684;DHT22;3884;48.616;12.872;2023-03-01T15:18:01;9.60;1.00
7684;DHT22;3884;48.616;12.872;2023-03-01T15:20:30;9.50;1.00
7684;DHT22;3884;48.616;12.872;2023-03-01T15:23:01;9.50;1.00
7684;DHT22;3884;48.616;12.872;2023-03-01T15:25:30;9.50;1.00
7684;DHT22;3884;48.616;12.872;2023-03-01T15:27:59;9.40;1.00
7684;DHT22;3884;48.616;12.872;2023-03-01T15:30:29;9.40;1.00
7684;DHT22;3884;48.616;12.872;2023-03-01T15:33:25;9.50;1.00
7684;DHT22;3884;48.616;12.872;2023-03-01T15:35:56;9.40;1.00
7684;DHT22;3884;48.616;12.872;2023-03-01T15:38:33;9.10;99.90
7684;DHT22;3884;48.616;12.872;2023-03-01T15:41:02;9.10;99.90
7684;DHT22;3884;48.616;12.872;2023-03-01T15:43:44;9.00;99.90
7684;DHT22;3884;48.616;12.872;2023-03-01T15:46:21;8.90;1.00
7684;DHT22;3884;48.616;12.872;2023-03-01T15:48:52;9.00;99.90
7684;DHT22;3884;48.616;12.872;2023-03-01T15:51:28;8.90;1.00
7684;DHT22;3884;48.616;12.872;2023-03-01T15:53:58;8.90;1.00
7684;DHT22;3884;48.616;12.872;2023-03-01T15:56:26;8.80;99.90
7684;DHT22;3884;48.616;12.872;2023-03-01T15:58:58;8.70;1.00
7684;DHT22;3884;48.616;12.872;2023-03-01T16:01:25;8.70;1.00
7684;DHT22;3884;48.616;12.872;2023-03-01T16:03:53;8.60;1.00
7684;DHT22;3884;48.616;12.872;2023-03-01T16:06:20;8.60;1.00
7684;DHT22;3884;48.616;12.872;2023-03-01T16:08:49;8.50;1.00
7684;DHT22;3884;48.616;12.872;2023-03-01T16:11:17;8.30;1.00
7684;DHT22;3884;48.616;12.872;2023-03-01T16:13:45;8.10;1.00
7684;DHT22;3884;48.616;12.872;2023-03-01T16:16:14;8.00;1.00
7684;DHT22;3884;48.616;12.872;2023-03-01T16:18:43;7.80;1.00
7684;DHT22;3884;48.616;12.872;2023-03-01T16:21:20;7.70;1.00
7684;DHT22;3884;48.616;12.872;2023-03-01T16:23:49;7.60;1.00
7684;DHT22;3884;48.616;12.872;2023-03-01T16:26:17;7.50;1.00
7684;DHT22;3884;48.616;12.872;2023-03-01T16:28:45;7.40;1.00
7684;DHT22;3884;48.616;12.872;2023-03-01T16:31:16;7.30;1.00
7684;DHT22;3884;48.616;12.872;2023-03-01T16:33:44;7.30;1.00
7684;DHT22;3884;48.616;12.872;2023-03-01T16:36:16;7.20;1.00
7684;DHT22;3884;48.616;12.872;2023-03-01T16:38:43;7.10;1.00
7684;DHT22;3884;48.616;12.872;2023-03-01T16:41:15;7.00;1.00
7684;DHT22;3884;48.616;12.872;2023-03-01T16:43:43;6.90;1.00
7684;DHT22;3884;48.616;12.872;2023-03-01T16:46:12;6.80;1.00